Time;durP1;ratioP1;P1;durP2;ratioP2;P2;SDS_P1;SDS_P2;PMS_P1;PMS_P2;Temp;Humidity;BMP_temperature;BMP_pressure;BME280_temperature;BME280_humidity;BME280_pressure;Samples;Min_cycle;Max_cycle;Signal;HPM_P1;HPM_P2
2024/01/11 00:00:35;;;;;;;0.00;0.00;;;;;;;;;;5022680;28;20040;-83
2024/01/11 00:03:02;;;;;;;0.00;0.00;;;;;;;;;;5039488;28;20130;-83
2024/01/11 00:05:27;;;;;;;0.00;0.00;;;;;;;;;;5039024;28;20036;-83
2024/01/11 00:07:53;;;;;;;0.00;0.00;;;;;;;;;;5055674;28;20024;-82
2024/01/11 00:10:18;;;;;;;0.00;0.00;;;;;;;;;;5044740;28;20033;-83
2024/01/11 00:12:44;;;;;;;0.00;0.00;;;;;;;;;;5035735;28;20108;-84
2024/01/11 00:15:09;;;;;;;0.00;0.00;;;;;;;;;;5035985;28;20081;-84
2024/01/11 00:17:36;;;;;;;0.00;0.00;;;;;;;;;;5035170;28;20025;-82
2024/01/11 00:20:01;;;;;;;0.00;0.00;;;;;;;;;;5002496;28;20044;-84
2024/01/11 00:22:27;;;;;;;0.00;0.00;;;;;;;;;;5018370;28;20366;-82
2024/01/11 00:24:52;;;;;;;0.00;0.00;;;;;;;;;;5017995;28;20021;-82
2024/01/11 00:27:18;;;;;;;0.00;0.00;;;;;;;;;;5034691;28;20079;-81
2024/01/11 00:29:44;;;;;;;0.00;0.00;;;;;;;;;;5033069;28;20533;-82
2024/01/11 00:32:09;;;;;;;0.00;0.00;;;;;;;;;;5022819;28;20024;-82
2024/01/11 00:34:35;;;;;;;0.00;0.00;;;;;;;;;;5055002;28;20095;-82
2024/01/11 00:37:01;;;;;;;0.00;0.00;;;;;;;;;;5005855;28;20390;-82
2024/01/11 00:39:27;;;;;;;0.00;0.00;;;;;;;;;;5033098;28;20430;-82
2024/01/11 00:41:52;;;;;;;0.00;0.00;;;;;;;;;;5015338;28;20079;-82
2024/01/11 00:44:18;;;;;;;0.00;0.00;;;;;;;;;;5017789;28;20029;-82
2024/01/11 00:46:44;;;;;;;0.00;0.00;;;;;;;;;;5034923;28;20025;-83
2024/01/11 00:49:10;;;;;;;0.00;0.00;;;;;;;;;;5034441;28;20135;-82
2024/01/11 00:51:35;;;;;;;0.00;0.00;;;;;;;;;;5053168;28;20025;-83
2024/01/11 00:54:01;;;;;;;0.00;0.00;;;;;;;;;;5046699;28;20119;-82
2024/01/11 00:56:26;;;;;;;0.00;0.00;;;;;;;;;;5072845;28;20071;-83
2024/01/11 00:58:52;;;;;;;0.00;0.00;;;;;;;;;;5055222;28;20128;-83
2024/01/11 01:01:18;;;;;;;0.00;0.00;;;;;;;;;;5038871;28;20149;-82
2024/01/11 01:03:44;;;;;;;0.00;0.00;;;;;;;;;;5054820;28;20029;-82
2024/01/11 01:06:09;;;;;;;0.00;0.00;;;;;;;;;;5055237;28;20138;-82
2024/01/11 01:08:35;;;;;;;0.00;0.00;;;;;;;;;;5054974;28;20098;-82
2024/01/11 01:11:00;;;;;;;0.00;0.00;;;;;;;;;;5055032;28;20038;-82
2024/01/11 01:13:26;;;;;;;0.00;0.00;;;;;;;;;;5052428;28;20465;-82
2024/01/11 01:15:51;;;;;;;0.00;0.00;;;;;;;;;;5035001;28;20374;-82
2024/01/11 01:18:17;;;;;;;0.00;0.00;;;;;;;;;;5033791;28;20029;-82
2024/01/11 01:20:43;;;;;;;0.00;0.00;;;;;;;;;;5018670;28;20181;-82
2024/01/11 01:23:08;;;;;;;0.00;0.00;;;;;;;;;;5055073;28;20076;-82
2024/01/11 01:25:34;;;;;;;0.00;0.00;;;;;;;;;;5038931;28;20047;-82
2024/01/11 01:28:00;;;;;;;0.00;0.00;;;;;;;;;;5028379;28;20424;-82
2024/01/11 01:30:26;;;;;;;0.00;0.00;;;;;;;;;;5058603;28;20032;-82
2024/01/11 01:32:52;;;;;;;0.00;0.00;;;;;;;;;;5041433;28;20056;-82
2024/01/11 01:35:18;;;;;;;0.00;0.00;;;;;;;;;;5057992;28;20323;-82
2024/01/11 01:37:43;;;;;;;0.00;0.00;;;;;;;;;;5058562;28;20032;-82
2024/01/11 01:40:09;;;;;;;0.00;0.00;;;;;;;;;;5058553;28;20024;-82
2024/01/11 01:42:35;;;;;;;0.00;0.00;;;;;;;;;;4990251;28;20033;-82
2024/01/11 01:45:00;;;;;;;0.00;0.00;;;;;;;;;;5019168;28;20034;-82
2024/01/11 01:47:27;;;;;;;0.00;0.00;;;;;;;;;;5033688;28;20094;-82
2024/01/11 01:49:52;;;;;;;0.00;0.00;;;;;;;;;;5005259;28;20039;-81
2024/01/11 01:52:18;;;;;;;0.00;0.00;;;;;;;;;;5021821;28;20374;-81
2024/01/11 01:54:44;;;;;;;0.00;0.00;;;;;;;;;;5038981;28;20138;-83
2024/01/11 01:57:10;;;;;;;0.00;0.00;;;;;;;;;;5041664;28;20040;-83
2024/01/11 01:59:35;;;;;;;0.00;0.00;;;;;;;;;;5058522;28;20040;-82
2024/01/11 02:02:01;;;;;;;0.00;0.00;;;;;;;;;;5075854;28;20037;-83
2024/01/11 02:04:26;;;;;;;0.00;0.00;;;;;;;;;;5041502;28;20422;-83
2024/01/11 02:06:52;;;;;;;0.00;0.00;;;;;;;;;;5041690;28;20106;-83
2024/01/11 02:09:17;;;;;;;0.00;0.00;;;;;;;;;;5075885;28;20028;-83
2024/01/11 02:11:43;;;;;;;0.10;0.10;;;;;;;;;;5041733;28;20150;-82
2024/01/11 02:14:10;;;;;;;0.00;0.00;;;;;;;;;;5027947;28;20056;-83
2024/01/11 02:16:36;;;;;;;0.00;0.00;;;;;;;;;;5017755;28;20442;-83
2024/01/11 02:19:01;;;;;;;0.00;0.00;;;;;;;;;;5002357;28;20033;-83
2024/01/11 02:21:27;;;;;;;0.00;0.00;;;;;;;;;;5014247;28;20029;-83
2024/01/11 02:24:06;;;;;;;0.00;0.00;;;;;;;;;;5035658;28;20029;-82
2024/01/11 02:26:31;;;;;;;0.00;0.00;;;;;;;;;;5034329;28;20377;-83
2024/01/11 02:28:57;;;;;;;0.08;0.08;;;;;;;;;;5018832;28;20043;-83
2024/01/11 02:31:22;;;;;;;0.28;0.28;;;;;;;;;;5056833;28;20045;-82
2024/01/11 02:33:48;;;;;;;0.28;0.28;;;;;;;;;;5075182;28;20029;-82
2024/01/11 02:36:13;;;;;;;0.10;0.10;;;;;;;;;;5040730;28;20039;-82
2024/01/11 02:38:39;;;;;;;0.45;0.40;;;;;;;;;;5039980;28;20181;-82
2024/01/11 02:41:05;;;;;;;0.00;0.00;;;;;;;;;;5040690;28;20033;-82
2024/01/11 02:43:30;;;;;;;0.10;0.10;;;;;;;;;;5029454;28;20033;-82
2024/01/11 02:45:58;;;;;;;0.20;0.20;;;;;;;;;;5020450;28;20037;-83
2024/01/11 02:48:27;;;;;;;0.22;0.22;;;;;;;;;;5020787;28;20355;-82
2024/01/11 02:50:53;;;;;;;0.10;0.10;;;;;;;;;;5052689;28;20094;-82
2024/01/11 02:53:18;;;;;;;0.40;0.40;;;;;;;;;;5059860;28;20127;-81
2024/01/11 02:55:44;;;;;;;1.77;1.10;;;;;;;;;;5057055;28;20085;-82
2024/01/11 02:58:09;;;;;;;3.28;2.08;;;;;;;;;;5056172;28;20410;-82
2024/01/11 03:00:35;;;;;;;2.25;1.48;;;;;;;;;;5073679;28;20036;-82
2024/01/11 03:03:01;;;;;;;3.05;2.00;;;;;;;;;;5055547;28;20030;-82
2024/01/11 03:05:26;;;;;;;2.65;1.73;;;;;;;;;;5055555;28;20644;-82
2024/01/11 03:07:52;;;;;;;1.45;1.27;;;;;;;;;;5056828;28;20060;-82
2024/01/11 03:10:17;;;;;;;2.15;1.58;;;;;;;;;;5056645;28;20040;-81
2024/01/11 03:12:43;;;;;;;2.58;1.65;;;;;;;;;;5056610;28;20086;-81
2024/01/11 03:15:09;;;;;;;2.80;1.88;;;;;;;;;;5057022;28;20078;-82
2024/01/11 03:17:34;;;;;;;2.42;1.63;;;;;;;;;;5042713;28;20037;-82
2024/01/11 03:20:00;;;;;;;1.77;1.30;;;;;;;;;;5054268;28;20036;-82
2024/01/11 03:22:26;;;;;;;0.95;0.75;;;;;;;;;;5036452;28;20090;-82
2024/01/11 03:24:51;;;;;;;1.90;1.30;;;;;;;;;;5053565;28;20037;-83
2024/01/11 03:27:17;;;;;;;1.33;0.95;;;;;;;;;;5036260;28;20082;-82
2024/01/11 03:29:42;;;;;;;2.97;1.98;;;;;;;;;;5036442;28;20060;-83
2024/01/11 03:32:08;;;;;;;0.80;0.70;;;;;;;;;;5022057;28;20033;-83
2024/01/11 03:34:33;;;;;;;0.73;0.50;;;;;;;;;;5016340;28;20451;-82
2024/01/11 03:36:59;;;;;;;0.22;0.22;;;;;;;;;;5016699;28;20427;-83
2024/01/11 03:39:25;;;;;;;0.73;0.40;;;;;;;;;;5034152;28;20028;-83
2024/01/11 03:41:50;;;;;;;0.35;0.30;;;;;;;;;;5033750;28;20017;-83
2024/01/11 03:44:16;;;;;;;0.20;0.20;;;;;;;;;;5034011;28;20048;-83
2024/01/11 03:46:41;;;;;;;0.17;0.17;;;;;;;;;;5032249;28;20447;-85
2024/01/11 03:49:10;;;;;;;0.20;0.20;;;;;;;;;;5034018;28;20112;-83
2024/01/11 03:51:36;;;;;;;0.25;0.25;;;;;;;;;;5039785;28;20466;-84
2024/01/11 03:54:01;;;;;;;0.75;0.75;;;;;;;;;;5046918;28;20024;-84
2024/01/11 03:56:27;;;;;;;1.98;1.30;;;;;;;;;;5055225;28;20055;-83
2024/01/11 03:58:52;;;;;;;1.70;1.13;;;;;;;;;;5073726;28;20123;-84
2024/01/11 04:01:19;;;;;;;0.20;0.17;;;;;;;;;;5039538;28;20135;-84
2024/01/11 04:03:45;;;;;;;0.08;0.00;;;;;;;;;;5056203;28;20370;-84
2024/01/11 04:06:21;;;;;;;0.00;0.00;;;;;;;;;;5055942;28;20434;-83
2024/01/11 04:08:48;;;;;;;0.00;0.00;;;;;;;;;;5039903;28;20488;-83
2024/01/11 04:11:13;;;;;;;0.45;0.20;;;;;;;;;;5055570;28;20457;-83
2024/01/11 04:13:39;;;;;;;0.00;0.00;;;;;;;;;;5039217;28;20111;-84
2024/01/11 04:16:06;;;;;;;0.00;0.00;;;;;;;;;;5055771;28;20035;-83
2024/01/11 04:18:32;;;;;;;0.00;0.00;;;;;;;;;;5049973;28;20027;-84
2024/01/11 04:20:57;;;;;;;0.00;0.00;;;;;;;;;;5035682;28;20025;-83
2024/01/11 04:23:23;;;;;;;0.00;0.00;;;;;;;;;;5035812;28;20108;-83
2024/01/11 04:25:50;;;;;;;0.00;0.00;;;;;;;;;;5020346;28;20103;-83
2024/01/11 04:28:16;;;;;;;0.00;0.00;;;;;;;;;;4999996;28;20033;-85
2024/01/11 04:30:41;;;;;;;0.00;0.00;;;;;;;;;;5015819;28;20033;-83
2024/01/11 04:33:07;;;;;;;0.00;0.00;;;;;;;;;;5044226;28;20119;-83
2024/01/11 04:35:32;;;;;;;0.20;0.20;;;;;;;;;;5055586;28;20035;-84
2024/01/11 04:37:58;;;;;;;0.20;0.20;;;;;;;;;;5055084;28;20377;-83
2024/01/11 04:40:24;;;;;;;0.10;0.10;;;;;;;;;;5054833;28;20095;-83
2024/01/11 04:42:49;;;;;;;0.10;0.10;;;;;;;;;;5055271;28;20472;-83
2024/01/11 04:45:15;;;;;;;0.10;0.10;;;;;;;;;;5073194;28;20052;-83
2024/01/11 04:47:40;;;;;;;0.20;0.20;;;;;;;;;;5047024;28;20037;-83
2024/01/11 04:50:07;;;;;;;0.08;0.08;;;;;;;;;;5032942;28;20103;-83
2024/01/11 04:52:32;;;;;;;0.10;0.10;;;;;;;;;;5015231;28;20029;-83
2024/01/11 04:54:58;;;;;;;0.00;0.00;;;;;;;;;;5024140;28;20355;-83
2024/01/11 04:57:23;;;;;;;0.00;0.00;;;;;;;;;;5036017;28;20410;-82
2024/01/11 04:59:49;;;;;;;0.00;0.00;;;;;;;;;;5022593;28;20029;-83
2024/01/11 05:02:15;;;;;;;0.10;0.10;;;;;;;;;;5022933;28;20087;-83
2024/01/11 05:04:40;;;;;;;0.03;0.00;;;;;;;;;;5057146;28;20029;-82
2024/01/11 05:07:06;;;;;;;0.00;0.00;;;;;;;;;;5040168;28;20149;-83
2024/01/11 05:09:31;;;;;;;0.00;0.00;;;;;;;;;;5051011;28;20091;-83
2024/01/11 05:11:57;;;;;;;0.00;0.00;;;;;;;;;;5072883;28;20021;-83
2024/01/11 05:14:22;;;;;;;0.00;0.00;;;;;;;;;;5067451;28;20118;-83
2024/01/11 05:16:48;;;;;;;0.00;0.00;;;;;;;;;;5021087;28;20478;-83
2024/01/11 05:19:13;;;;;;;0.00;0.00;;;;;;;;;;5037243;28;20219;-82
2024/01/11 05:21:39;;;;;;;0.00;0.00;;;;;;;;;;5033262;28;20458;-83
2024/01/11 05:24:05;;;;;;;0.00;0.00;;;;;;;;;;5038507;28;20056;-83
2024/01/11 05:26:32;;;;;;;0.00;0.00;;;;;;;;;;5022213;28;20112;-83
2024/01/11 05:28:57;;;;;;;0.00;0.00;;;;;;;;;;5039610;28;20028;-84
2024/01/11 05:31:23;;;;;;;0.00;0.00;;;;;;;;;;5076559;28;20123;-82
2024/01/11 05:33:48;;;;;;;0.00;0.00;;;;;;;;;;5076494;28;20028;-82
2024/01/11 05:36:14;;;;;;;0.00;0.00;;;;;;;;;;5041555;28;20034;-87
2024/01/11 05:38:42;;;;;;;0.00;0.00;;;;;;;;;;5024943;28;20088;-87
2024/01/11 05:41:34;;;;;;;0.00;0.00;;;;;;;;;;5050737;23;20670;-87
2024/01/11 05:44:17;;;;;;;;;;;;;;;;;;;;;
2024/01/11 05:46:49;;;;;;;0.10;0.10;;;;;;;;;;5055109;28;20057;-90
2024/01/11 05:49:17;;;;;;;0.00;0.00;;;;;;;;;;5021987;28;20044;-89
2024/01/11 05:51:50;;;;;;;0.00;0.00;;;;;;;;;;5021663;28;20048;-89
2024/01/11 05:54:28;;;;;;;0.10;0.10;;;;;;;;;;5021001;28;20429;-88
2024/01/11 05:57:38;;;;;;;0.03;0.03;;;;;;;;;;5025841;28;20030;-89
2024/01/11 06:00:23;;;;;;;0.65;0.10;;;;;;;;;;4947498;28;20051;-90
2024/01/11 06:03:38;;;;;;;;;;;;;;;;;;;;;
2024/01/11 06:06:05;;;;;;;0.00;0.00;;;;;;;;;;4944264;28;20035;-87
2024/01/11 06:21:16;;;;;;;;;;;;;;;;;;;;;
2024/01/11 06:58:27;;;;;;;0.00;0.00;;;;;;;;;;5093969;22;21268;-83
2024/01/11 07:00:53;;;;;;;0.08;0.08;;;;;;;;;;5079053;28;20194;-85
2024/01/11 07:06:41;;;;;;;0.00;0.00;;;;;;;;;;5084296;22;20117;-81
2024/01/11 07:18:53;;;;;;;0.00;0.00;;;;;;;;;;4989509;28;20026;-86
2024/01/11 07:21:46;;;;;;;0.00;0.00;;;;;;;;;;4999880;28;20044;-87
2024/01/11 07:24:13;;;;;;;0.00;0.00;;;;;;;;;;4997830;28;20452;-89
2024/01/11 07:26:39;;;;;;;0.03;0.03;;;;;;;;;;4994801;28;20054;-86
2024/01/11 07:29:10;;;;;;;0.00;0.00;;;;;;;;;;4977831;28;20526;-92
2024/01/11 07:32:00;;;;;;;0.00;0.00;;;;;;;;;;4965791;28;20038;-92
2024/01/11 07:34:27;;;;;;;0.00;0.00;;;;;;;;;;4962590;28;20034;-89
2024/01/11 07:37:02;;;;;;;0.00;0.00;;;;;;;;;;5039593;28;20039;-86
2024/01/11 07:39:27;;;;;;;0.00;0.00;;;;;;;;;;5070358;28;20033;-87
2024/01/11 07:44:28;;;;;;;0.00;0.00;;;;;;;;;;5080467;22;20064;-87
2024/01/11 07:46:54;;;;;;;0.00;0.00;;;;;;;;;;5072776;28;20025;-89
2024/01/11 07:49:41;;;;;;;0.00;0.00;;;;;;;;;;5075217;28;20084;-86
2024/01/11 07:53:03;;;;;;;0.00;0.00;;;;;;;;;;5053203;28;20135;-87
2024/01/11 07:55:28;;;;;;;0.00;0.00;;;;;;;;;;5059868;28;20055;-85
2024/01/11 08:00:56;;;;;;;0.00;0.00;;;;;;;;;;5109364;22;20086;-88
2024/01/11 08:06:09;;;;;;;0.00;0.00;;;;;;;;;;5023325;23;20078;-91
2024/01/11 08:08:51;;;;;;;0.00;0.00;;;;;;;;;;5029779;28;20037;-91
2024/01/11 08:11:34;;;;;;;0.00;0.00;;;;;;;;;;5040905;28;20045;-89
2024/01/11 08:14:30;;;;;;;0.00;0.00;;;;;;;;;;5008316;28;20017;-84
2024/01/11 08:16:58;;;;;;;0.00;0.00;;;;;;;;;;5032704;28;20471;-86
2024/01/11 08:19:24;;;;;;;0.00;0.00;;;;;;;;;;5037263;28;20126;-90
2024/01/11 08:21:50;;;;;;;0.00;0.00;;;;;;;;;;5017209;28;20033;-86
2024/01/11 08:24:18;;;;;;;0.00;0.00;;;;;;;;;;5000696;28;20037;-90
2024/01/11 08:26:44;;;;;;;0.00;0.00;;;;;;;;;;5024938;28;20297;-87
2024/01/11 08:29:13;;;;;;;0.00;0.00;;;;;;;;;;5018305;28;20108;-89
2024/01/11 08:31:54;;;;;;;0.00;0.00;;;;;;;;;;5016651;28;20077;-92
2024/01/11 08:34:23;;;;;;;0.00;0.00;;;;;;;;;;5036925;28;20045;-89
2024/01/11 08:36:50;;;;;;;0.00;0.00;;;;;;;;;;5033374;28;20049;-91
2024/01/11 08:39:16;;;;;;;0.00;0.00;;;;;;;;;;5301215;23;20038;-88
2024/01/11 08:41:42;;;;;;;0.00;0.00;;;;;;;;;;5090586;28;20023;-91
2024/01/11 08:44:08;;;;;;;0.00;0.00;;;;;;;;;;5058482;28;20100;-93
2024/01/11 08:46:33;;;;;;;0.00;0.00;;;;;;;;;;5056365;28;20043;-94
2024/01/11 08:48:59;;;;;;;0.00;0.00;;;;;;;;;;5058914;28;20017;-89
2024/01/11 08:51:40;;;;;;;0.00;0.00;;;;;;;;;;5059157;28;20036;-90
2024/01/11 08:54:20;;;;;;;0.00;0.00;;;;;;;;;;5124360;27;20042;-91
2024/01/11 08:56:47;;;;;;;0.00;0.00;;;;;;;;;;5097228;28;20053;-92
2024/01/11 08:59:15;;;;;;;0.00;0.00;;;;;;;;;;5030107;22;20053;-87
2024/01/11 09:01:44;;;;;;;0.00;0.00;;;;;;;;;;5035330;28;20021;-90
2024/01/11 09:04:17;;;;;;;0.00;0.00;;;;;;;;;;5000892;28;20038;-91
2024/01/11 09:06:43;;;;;;;0.00;0.00;;;;;;;;;;5052414;28;20078;-92
2024/01/11 09:09:10;;;;;;;0.00;0.00;;;;;;;;;;4984665;28;20084;-83
2024/01/11 09:11:41;;;;;;;0.00;0.00;;;;;;;;;;5011374;28;20046;-85
2024/01/11 09:14:07;;;;;;;0.00;0.00;;;;;;;;;;5029190;28;20054;-90
2024/01/11 09:16:39;;;;;;;0.00;0.00;;;;;;;;;;5013265;28;20451;-85
2024/01/11 09:19:08;;;;;;;0.00;0.00;;;;;;;;;;5026618;28;20530;-89
2024/01/11 09:21:34;;;;;;;0.00;0.00;;;;;;;;;;5010149;28;20030;-87
2024/01/11 09:24:03;;;;;;;0.00;0.00;;;;;;;;;;5013475;28;20040;-86
2024/01/11 09:29:45;;;;;;;;;;;;;;;;;;;;;
2024/01/11 09:32:21;;;;;;;0.00;0.00;;;;;;;;;;5003111;28;20036;-84
2024/01/11 09:34:47;;;;;;;0.00;0.00;;;;;;;;;;5003293;28;20034;-90
2024/01/11 09:37:18;;;;;;;0.00;0.00;;;;;;;;;;5016310;28;20423;-88
2024/01/11 09:39:53;;;;;;;0.00;0.00;;;;;;;;;;5007475;28;20033;-82
2024/01/11 09:42:28;;;;;;;0.00;0.00;;;;;;;;;;5020125;28;20728;-84
2024/01/11 09:44:59;;;;;;;0.00;0.00;;;;;;;;;;5024071;28;20163;-84
2024/01/11 09:53:36;;;;;;;0.00;0.00;;;;;;;;;;5264221;22;20071;-84
2024/01/11 10:01:27;;;;;;;0.00;0.00;;;;;;;;;;5891010;22;20354;-82
2024/01/11 10:04:05;;;;;;;0.00;0.00;;;;;;;;;;5066697;28;20448;-82
2024/01/11 10:06:33;;;;;;;0.00;0.00;;;;;;;;;;5076786;28;20111;-87
2024/01/11 10:08:58;;;;;;;0.00;0.00;;;;;;;;;;5082191;28;20040;-84
2024/01/11 10:30:59;;;;;;;0.00;0.00;;;;;;;;;;5110620;22;20052;-91
2024/01/11 10:33:25;;;;;;;0.00;0.00;;;;;;;;;;5083305;28;20085;-85
2024/01/11 10:54:51;;;;;;;0.00;0.00;;;;;;;;;;5098155;28;20039;-89
2024/01/11 10:57:17;;;;;;;0.00;0.00;;;;;;;;;;5048532;28;20561;-84
2024/01/11 10:59:46;;;;;;;0.00;0.00;;;;;;;;;;5029816;22;20057;-84
2024/01/11 11:02:38;;;;;;;0.00;0.00;;;;;;;;;;5059347;28;20724;-86
2024/01/11 11:05:04;;;;;;;0.00;0.00;;;;;;;;;;5090679;28;20126;-83
2024/01/11 11:07:31;;;;;;;0.00;0.00;;;;;;;;;;5070489;28;20088;-87
2024/01/11 11:09:58;;;;;;;0.00;0.00;;;;;;;;;;5070489;22;20536;-85
2024/01/11 11:12:24;;;;;;;0.00;0.00;;;;;;;;;;5064669;28;20116;-88
2024/01/11 11:14:50;;;;;;;0.00;0.00;;;;;;;;;;5067209;28;20035;-90
2024/01/11 11:17:27;;;;;;;0.00;0.00;;;;;;;;;;5070764;28;20060;-83
2024/01/11 11:20:47;;;;;;;0.00;0.00;;;;;;;;;;5066213;22;20059;-84
2024/01/11 11:23:14;;;;;;;0.00;0.00;;;;;;;;;;4980474;28;20510;-85
2024/01/11 11:25:40;;;;;;;0.00;0.00;;;;;;;;;;5047981;28;20045;-82
2024/01/11 11:28:06;;;;;;;0.00;0.00;;;;;;;;;;5009735;28;20044;-87
2024/01/11 11:30:38;;;;;;;0.00;0.00;;;;;;;;;;5038496;28;20144;-88
2024/01/11 11:33:11;;;;;;;0.00;0.00;;;;;;;;;;5029313;28;20370;-86
2024/01/11 11:35:40;;;;;;;0.00;0.00;;;;;;;;;;5021918;28;20035;-89
2024/01/11 11:38:05;;;;;;;0.00;0.00;;;;;;;;;;5051242;28;20124;-86
2024/01/11 11:40:39;;;;;;;0.00;0.00;;;;;;;;;;5056263;28;20060;-88
2024/01/11 11:43:08;;;;;;;0.00;0.00;;;;;;;;;;5021679;28;20374;-88
2024/01/11 11:45:34;;;;;;;0.00;0.00;;;;;;;;;;5058306;28;20322;-89
2024/01/11 11:48:38;;;;;;;0.00;0.00;;;;;;;;;;5051207;28;20041;-93
2024/01/11 11:51:15;;;;;;;0.00;0.00;;;;;;;;;;5004525;28;20049;-89
2024/01/11 11:53:41;;;;;;;0.00;0.00;;;;;;;;;;4999746;28;20304;-91
2024/01/11 11:56:10;;;;;;;0.00;0.00;;;;;;;;;;5018458;28;20084;-93
2024/01/11 11:58:39;;;;;;;0.00;0.00;;;;;;;;;;5036300;28;20097;-89
2024/01/11 12:01:05;;;;;;;0.00;0.00;;;;;;;;;;5022536;28;20032;-89
2024/01/11 12:03:55;;;;;;;0.00;0.00;;;;;;;;;;5024273;28;20127;-92
2024/01/11 12:09:23;;;;;;;0.00;0.00;;;;;;;;;;5292810;22;20087;-89
2024/01/11 12:11:49;;;;;;;0.00;0.00;;;;;;;;;;5057510;28;20050;-94
2024/01/11 12:14:14;;;;;;;0.00;0.00;;;;;;;;;;5056155;28;20045;-86
2024/01/11 12:16:40;;;;;;;0.00;0.00;;;;;;;;;;5014717;28;20039;-87
2024/01/11 12:19:06;;;;;;;0.00;0.00;;;;;;;;;;5033931;28;20040;-90
2024/01/11 12:21:31;;;;;;;0.00;0.00;;;;;;;;;;5082240;28;20039;-92
2024/01/11 12:23:57;;;;;;;0.00;0.00;;;;;;;;;;5061081;28;20358;-91
2024/01/11 12:26:23;;;;;;;0.00;0.00;;;;;;;;;;5026719;28;20055;-87
2024/01/11 12:28:48;;;;;;;0.00;0.00;;;;;;;;;;5050674;28;20041;-88
2024/01/11 12:31:22;;;;;;;0.00;0.00;;;;;;;;;;5047319;28;20387;-88
2024/01/11 12:33:48;;;;;;;0.00;0.00;;;;;;;;;;5042973;28;20044;-81
2024/01/11 12:36:14;;;;;;;0.00;0.00;;;;;;;;;;5059423;28;20021;-86
2024/01/11 12:38:48;;;;;;;0.00;0.00;;;;;;;;;;5067701;28;20020;-86
2024/01/11 12:41:13;;;;;;;0.00;0.00;;;;;;;;;;5093588;28;20329;-83
2024/01/11 12:43:39;;;;;;;0.00;0.00;;;;;;;;;;5065060;28;20327;-81
2024/01/11 12:46:04;;;;;;;0.00;0.00;;;;;;;;;;5050918;28;20127;-85
2024/01/11 12:48:30;;;;;;;0.00;0.00;;;;;;;;;;5067131;28;20185;-84
2024/01/11 12:50:56;;;;;;;0.00;0.00;;;;;;;;;;5033652;28;20033;-82
2024/01/11 12:53:22;;;;;;;0.00;0.00;;;;;;;;;;5068570;28;20124;-85
2024/01/11 12:55:48;;;;;;;0.00;0.00;;;;;;;;;;5050812;28;20025;-83
2024/01/11 12:58:15;;;;;;;0.00;0.00;;;;;;;;;;5051254;28;20193;-82
2024/01/11 13:00:41;;;;;;;0.00;0.00;;;;;;;;;;5035881;28;20115;-85
2024/01/11 13:03:07;;;;;;;0.00;0.00;;;;;;;;;;5054380;28;20173;-87
2024/01/11 13:05:35;;;;;;;0.00;0.00;;;;;;;;;;5071421;28;20029;-87
2024/01/11 13:08:02;;;;;;;0.00;0.00;;;;;;;;;;5053997;28;20054;-86
2024/01/11 13:10:29;;;;;;;0.00;0.00;;;;;;;;;;5054981;28;20116;-86
2024/01/11 13:12:55;;;;;;;0.00;0.00;;;;;;;;;;5055457;28;20031;-86
2024/01/11 13:15:20;;;;;;;0.00;0.00;;;;;;;;;;5073322;28;20056;-87
2024/01/11 13:17:46;;;;;;;0.00;0.00;;;;;;;;;;5055354;28;20094;-88
2024/01/11 13:20:11;;;;;;;0.00;0.00;;;;;;;;;;5077315;28;20033;-86
2024/01/11 13:22:37;;;;;;;0.00;0.00;;;;;;;;;;5077035;28;20031;-87
2024/01/11 13:25:04;;;;;;;0.00;0.00;;;;;;;;;;5077231;28;20515;-89
2024/01/11 13:27:32;;;;;;;0.00;0.00;;;;;;;;;;5077212;28;20111;-88
2024/01/11 13:29:59;;;;;;;0.00;0.00;;;;;;;;;;5060310;28;20131;-87
2024/01/11 13:32:25;;;;;;;0.00;0.00;;;;;;;;;;5077618;28;20028;-87
2024/01/11 13:34:53;;;;;;;0.00;0.00;;;;;;;;;;5078444;28;20040;-89
2024/01/11 13:37:19;;;;;;;0.00;0.00;;;;;;;;;;5076858;28;20178;-86
2024/01/11 13:39:46;;;;;;;0.00;0.00;;;;;;;;;;5043828;28;20122;-89
2024/01/11 13:42:11;;;;;;;0.00;0.00;;;;;;;;;;5079975;28;20040;-89
2024/01/11 13:44:38;;;;;;;0.00;0.00;;;;;;;;;;5068485;28;20035;-90
2024/01/11 13:47:05;;;;;;;0.00;0.00;;;;;;;;;;5046502;28;20047;-87
2024/01/11 13:49:31;;;;;;;0.00;0.00;;;;;;;;;;5077500;28;20028;-88
2024/01/11 13:51:57;;;;;;;0.00;0.00;;;;;;;;;;5076452;28;20054;-87
2024/01/11 13:54:23;;;;;;;0.00;0.00;;;;;;;;;;5076758;28;20029;-87
2024/01/11 13:56:49;;;;;;;0.00;0.00;;;;;;;;;;5058678;28;20351;-85
2024/01/11 13:59:15;;;;;;;0.00;0.00;;;;;;;;;;5058680;28;20029;-84
2024/01/11 14:01:40;;;;;;;0.00;0.00;;;;;;;;;;5059071;28;20369;-85
2024/01/11 14:04:07;;;;;;;0.00;0.00;;;;;;;;;;5058719;28;20090;-86
2024/01/11 14:06:32;;;;;;;0.00;0.00;;;;;;;;;;5076780;28;20051;-89
2024/01/11 14:08:58;;;;;;;0.00;0.00;;;;;;;;;;5042573;28;20408;-87
2024/01/11 14:11:23;;;;;;;0.00;0.00;;;;;;;;;;5036633;28;20069;-87
2024/01/11 14:13:50;;;;;;;0.00;0.00;;;;;;;;;;5036334;28;20416;-87
2024/01/11 14:16:16;;;;;;;0.00;0.00;;;;;;;;;;5018782;28;20025;-88
2024/01/11 14:18:42;;;;;;;0.00;0.00;;;;;;;;;;5035154;28;20025;-87
2024/01/11 14:21:11;;;;;;;0.00;0.00;;;;;;;;;;5036414;28;20515;-86
2024/01/11 14:23:37;;;;;;;0.00;0.00;;;;;;;;;;5036300;28;20032;-88
2024/01/11 14:26:03;;;;;;;0.00;0.00;;;;;;;;;;5035099;28;20025;-89
2024/01/11 14:28:32;;;;;;;0.00;0.00;;;;;;;;;;5018540;28;20033;-88
2024/01/11 14:30:57;;;;;;;0.00;0.00;;;;;;;;;;5036123;28;20040;-88
2024/01/11 14:33:24;;;;;;;0.00;0.00;;;;;;;;;;5034963;28;20116;-86
2024/01/11 14:35:49;;;;;;;0.00;0.00;;;;;;;;;;5035873;28;20364;-87
2024/01/11 14:38:15;;;;;;;0.00;0.00;;;;;;;;;;5034815;28;20029;-88
2024/01/11 14:40:41;;;;;;;0.00;0.00;;;;;;;;;;5002063;28;20036;-89
2024/01/11 14:43:08;;;;;;;0.00;0.00;;;;;;;;;;5019175;28;20025;-89
2024/01/11 14:45:34;;;;;;;0.00;0.00;;;;;;;;;;5035268;28;20032;-88
2024/01/11 14:48:01;;;;;;;0.00;0.00;;;;;;;;;;5034630;28;20033;-89
2024/01/11 14:50:28;;;;;;;0.00;0.00;;;;;;;;;;5033768;28;20481;-89
2024/01/11 14:52:53;;;;;;;0.00;0.00;;;;;;;;;;5034985;28;20025;-87
2024/01/11 14:55:19;;;;;;;0.00;0.00;;;;;;;;;;5036069;28;20477;-88
2024/01/11 14:57:45;;;;;;;0.00;0.00;;;;;;;;;;5036151;28;20025;-89
2024/01/11 15:00:11;;;;;;;0.00;0.00;;;;;;;;;;5034749;28;20065;-90
2024/01/11 15:02:37;;;;;;;0.00;0.00;;;;;;;;;;5034334;28;20036;-91
2024/01/11 15:05:04;;;;;;;0.00;0.00;;;;;;;;;;5022828;28;20046;-87
2024/01/11 15:07:30;;;;;;;0.00;0.00;;;;;;;;;;5017455;28;20030;-90
2024/01/11 15:09:56;;;;;;;0.00;0.00;;;;;;;;;;5038244;28;20481;-90
2024/01/11 15:12:22;;;;;;;0.00;0.00;;;;;;;;;;5055770;28;20029;-90
2024/01/11 15:14:50;;;;;;;0.00;0.00;;;;;;;;;;5055899;28;20028;-91
2024/01/11 15:17:18;;;;;;;0.00;0.00;;;;;;;;;;5055959;28;20031;-89
2024/01/11 15:19:43;;;;;;;0.00;0.00;;;;;;;;;;5055816;28;20052;-90
2024/01/11 15:22:12;;;;;;;0.00;0.00;;;;;;;;;;5038196;28;20053;-91
2024/01/11 15:24:37;;;;;;;0.00;0.00;;;;;;;;;;5037999;28;20421;-89
2024/01/11 15:27:03;;;;;;;0.00;0.00;;;;;;;;;;5021977;28;20033;-87
2024/01/11 15:29:29;;;;;;;0.00;0.00;;;;;;;;;;5038849;28;20029;-91
2024/01/11 15:31:54;;;;;;;0.00;0.00;;;;;;;;;;5056183;28;20117;-89
2024/01/11 15:34:20;;;;;;;0.00;0.00;;;;;;;;;;5022840;28;20366;-89
2024/01/11 15:36:46;;;;;;;0.00;0.00;;;;;;;;;;5055860;28;20512;-90
2024/01/11 15:39:11;;;;;;;0.00;0.00;;;;;;;;;;5037797;28;20033;-90
2024/01/11 15:41:37;;;;;;;0.00;0.00;;;;;;;;;;5054812;28;20033;-91
2024/01/11 15:44:03;;;;;;;0.00;0.00;;;;;;;;;;5056456;28;20048;-89
2024/01/11 15:46:30;;;;;;;0.00;0.00;;;;;;;;;;5038595;28;20075;-90
2024/01/11 15:48:56;;;;;;;0.00;0.00;;;;;;;;;;5024651;28;20465;-91
2024/01/11 15:51:22;;;;;;;0.00;0.00;;;;;;;;;;5037657;28;20041;-92
2024/01/11 15:53:47;;;;;;;0.00;0.00;;;;;;;;;;5054847;28;20029;-90
2024/01/11 15:56:14;;;;;;;0.00;0.00;;;;;;;;;;5058554;28;20032;-93
2024/01/11 15:58:39;;;;;;;0.00;0.00;;;;;;;;;;5044820;28;20443;-90
2024/01/11 16:01:05;;;;;;;0.00;0.00;;;;;;;;;;5059529;28;20063;-90
2024/01/11 16:03:31;;;;;;;0.00;0.00;;;;;;;;;;5024711;28;20161;-91
2024/01/11 16:05:56;;;;;;;0.00;0.00;;;;;;;;;;5058707;28;20450;-92
2024/01/11 16:08:24;;;;;;;0.00;0.00;;;;;;;;;;5057160;28;20117;-92
2024/01/11 16:10:49;;;;;;;0.00;0.00;;;;;;;;;;5057364;28;20036;-91
2024/01/11 16:13:15;;;;;;;0.00;0.00;;;;;;;;;;5057494;28;20569;-91
2024/01/11 16:15:41;;;;;;;0.00;0.00;;;;;;;;;;5056910;28;20025;-92
2024/01/11 16:18:06;;;;;;;0.00;0.00;;;;;;;;;;5057531;28;20129;-92
2024/01/11 16:20:32;;;;;;;0.00;0.00;;;;;;;;;;5056995;28;20093;-91
2024/01/11 16:22:58;;;;;;;0.00;0.00;;;;;;;;;;5056706;28;20476;-91
2024/01/11 16:25:24;;;;;;;0.00;0.00;;;;;;;;;;5074795;28;20028;-90
2024/01/11 16:27:49;;;;;;;0.00;0.00;;;;;;;;;;5040577;28;20094;-90
2024/01/11 16:30:16;;;;;;;0.00;0.00;;;;;;;;;;5075668;28;20047;-91
2024/01/11 16:32:43;;;;;;;0.00;0.00;;;;;;;;;;5074818;28;20098;-91
2024/01/11 16:35:09;;;;;;;0.00;0.00;;;;;;;;;;5057535;28;20032;-90
2024/01/11 16:37:35;;;;;;;0.00;0.00;;;;;;;;;;5039936;28;20029;-90
2024/01/11 16:40:02;;;;;;;0.00;0.00;;;;;;;;;;5056275;28;20460;-91
2024/01/11 16:42:28;;;;;;;0.00;0.00;;;;;;;;;;5057821;28;20036;-91
2024/01/11 16:44:53;;;;;;;0.00;0.00;;;;;;;;;;5056079;28;20028;-90
2024/01/11 16:47:20;;;;;;;0.00;0.00;;;;;;;;;;5074294;28;20447;-91
2024/01/11 16:49:45;;;;;;;0.00;0.00;;;;;;;;;;5039398;28;20055;-90
2024/01/11 16:52:11;;;;;;;0.00;0.00;;;;;;;;;;5058057;28;20422;-91
2024/01/11 16:54:36;;;;;;;0.00;0.00;;;;;;;;;;5062234;28;20488;-92